createdAt,value
2019-04-20T00:00:50.686Z,94.00
2019-04-20T00:03:16.438Z,94.50
2019-04-20T00:05:46.318Z,94.30
2019-04-20T00:08:22.640Z,94.70
2019-04-20T00:10:57.021Z,94.20
2019-04-20T00:13:28.636Z,94.10
2019-04-20T00:15:51.344Z,94.80
2019-04-20T00:18:21.145Z,94.50
2019-04-20T00:21:06.645Z,94.80
2019-04-20T00:23:45.180Z,94.70
2019-04-20T00:27:06.502Z,94.90
2019-04-20T00:29:25.411Z,94.80
2019-04-20T00:31:49.225Z,94.90
2019-04-20T00:34:17.006Z,95.20
2019-04-20T00:36:41.166Z,95.70
2019-04-20T00:39:12.954Z,95.60
2019-04-20T00:41:51.015Z,95.90
2019-04-20T00:44:22.005Z,96.20
2019-04-20T00:46:57.349Z,96.40
2019-04-20T00:49:30.687Z,96.70
2019-04-20T00:52:15.181Z,96.70
2019-04-20T00:54:20.125Z,96.70
2019-04-20T00:56:50.070Z,96.70
2019-04-20T00:59:31.608Z,97.10
2019-04-20T01:02:10.873Z,97.20
2019-04-20T01:04:43.242Z,97.60
2019-04-20T01:07:28.945Z,97.90
2019-04-20T01:10:17.319Z,98.20
2019-04-20T01:12:47.521Z,98.70
2019-04-20T01:15:28.127Z,98.50
2019-04-20T01:17:51.270Z,98.60
2019-04-20T01:20:22.639Z,98.40
2019-04-20T01:23:00.181Z,98.70
2019-04-20T01:25:29.035Z,98.50
2019-04-20T01:28:19.372Z,98.50
2019-04-20T01:30:33.921Z,98.90
2019-04-20T01:33:12.854Z,98.80
2019-04-20T01:35:47.939Z,98.90
2019-04-20T01:38:21.066Z,99.10
2019-04-20T01:40:33.725Z,99.30
2019-04-20T01:43:03.827Z,99.00
2019-04-20T01:45:37.893Z,99.40
2019-04-20T01:48:07.004Z,99.80
2019-04-20T01:50:42.051Z,99.90
2019-04-20T01:53:16.500Z,99.90
2019-04-20T01:55:55.718Z,99.90
2019-04-20T01:58:55.461Z,99.90
2019-04-20T02:01:24.313Z,99.90
2019-04-20T02:04:15.770Z,99.90
2019-04-20T02:06:48.097Z,99.90
2019-04-20T02:09:15.679Z,99.90
2019-04-20T02:11:46.768Z,99.90
2019-04-20T02:14:25.527Z,99.90
2019-04-20T02:16:49.607Z,99.90
2019-04-20T02:19:32.017Z,99.90
2019-04-20T02:22:03.979Z,99.90
2019-04-20T02:24:21.551Z,99.90
2019-04-20T02:26:51.943Z,99.90
2019-04-20T02:29:46.074Z,99.90
2019-04-20T02:32:23.900Z,99.90
2019-04-20T02:35:18.657Z,99.90
2019-04-20T02:38:10.426Z,99.90
2019-04-20T02:40:40.686Z,99.90
2019-04-20T02:50:43.290Z,99.90
2019-04-20T02:53:10.088Z,99.90
2019-04-20T02:58:18.792Z,99.90
2019-04-20T03:00:35.139Z,99.90
2019-04-20T03:02:55.879Z,99.90
2019-04-20T03:05:29.857Z,99.90
2019-04-20T03:08:08.921Z,99.90
2019-04-20T03:10:50.650Z,99.90
2019-04-20T03:13:15.850Z,99.90
2019-04-20T03:15:42.317Z,99.90
2019-04-20T03:18:17.692Z,99.90
2019-04-20T03:20:47.819Z,99.90
2019-04-20T03:23:36.094Z,99.90
2019-04-20T03:26:13.866Z,99.90
2019-04-20T03:28:56.684Z,99.90
2019-04-20T03:36:41.473Z,99.90
2019-04-20T03:39:03.972Z,99.90
2019-04-20T03:41:26.206Z,99.90
2019-04-20T03:43:49.784Z,99.90
2019-04-20T03:46:30.100Z,99.90
2019-04-20T03:49:07.420Z,99.90
2019-04-20T03:51:47.087Z,99.90
2019-04-20T03:54:24.746Z,99.90
2019-04-20T03:57:18.459Z,99.90
2019-04-20T04:00:00.686Z,99.90
2019-04-20T04:03:02.821Z,99.90
2019-04-20T04:05:42.519Z,99.90
2019-04-20T04:08:09.131Z,99.90
2019-04-20T04:10:47.888Z,99.90
2019-04-20T04:13:09.777Z,99.90
2019-04-20T04:15:46.785Z,99.70
2019-04-20T04:18:23.004Z,99.20
2019-04-20T04:20:51.373Z,98.50
2019-04-20T04:23:35.641Z,97.90
2019-04-20T04:26:04.464Z,97.00
2019-04-20T04:28:36.941Z,96.20
2019-04-20T04:36:10.047Z,95.10
2019-04-20T04:38:47.524Z,95.00
2019-04-20T04:41:19.573Z,95.30
2019-04-20T04:43:44.455Z,95.50
2019-04-20T04:45:59.560Z,96.00
2019-04-20T04:48:35.098Z,96.40
2019-04-20T04:51:08.604Z,97.20
2019-04-20T04:53:44.184Z,96.80
2019-04-20T04:56:09.411Z,96.50
2019-04-20T04:58:36.172Z,96.50
2019-04-20T05:01:11.774Z,96.50
2019-04-20T05:04:02.822Z,96.70
2019-04-20T05:06:30.022Z,96.40
2019-04-20T05:08:55.113Z,96.50
2019-04-20T05:11:21.700Z,96.70
2019-04-20T05:13:58.482Z,96.20
2019-04-20T05:16:43.554Z,96.50
2019-04-20T05:19:29.516Z,96.00
2019-04-20T05:22:08.210Z,96.20
2019-04-20T05:24:33.863Z,95.90
2019-04-20T05:27:32.127Z,96.30
2019-04-20T05:29:42.783Z,96.30
2019-04-20T05:32:18.000Z,96.00
2019-04-20T05:35:09.160Z,95.80
2019-04-20T05:37:41.367Z,95.60
2019-04-20T05:40:11.898Z,95.80
2019-04-20T05:42:48.545Z,95.20
2019-04-20T05:45:16.697Z,95.30
2019-04-20T05:47:48.246Z,95.30
2019-04-20T05:50:23.258Z,95.30
2019-04-20T05:52:56.216Z,95.30
2019-04-20T05:55:29.452Z,95.00
2019-04-20T05:58:03.673Z,94.70
2019-04-20T06:00:37.070Z,95.20
2019-04-20T06:02:57.866Z,95.00
2019-04-20T06:05:38.877Z,94.50
2019-04-20T06:08:09.351Z,94.80
2019-04-20T06:10:55.083Z,94.40
2019-04-20T06:13:48.646Z,94.20
2019-04-20T06:16:45.754Z,93.80
2019-04-20T06:19:24.246Z,93.50
2019-04-20T06:22:03.430Z,93.00
2019-04-20T06:24:42.189Z,93.10
2019-04-20T06:27:05.020Z,92.20
2019-04-20T06:29:34.839Z,92.30
2019-04-20T06:32:10.913Z,92.00
2019-04-20T06:34:39.700Z,90.70
2019-04-20T06:37:07.078Z,90.50
2019-04-20T06:42:23.468Z,88.90
2019-04-20T06:44:39.708Z,87.60
2019-04-20T06:47:17.606Z,88.20
2019-04-20T06:49:42.497Z,87.50
2019-04-20T06:55:09.937Z,83.40
2019-04-20T06:57:45.377Z,83.50
2019-04-20T07:00:18.103Z,83.40
2019-04-20T07:02:48.486Z,80.90
2019-04-20T07:05:22.500Z,80.80
2019-04-20T07:07:54.576Z,78.50
2019-04-20T07:10:25.261Z,81.20
2019-04-20T07:12:50.654Z,80.40
2019-04-20T07:15:22.740Z,77.70
2019-04-20T07:20:46.957Z,76.30
2019-04-20T07:23:23.880Z,79.20
2019-04-20T07:25:43.163Z,75.90
2019-04-20T07:28:14.107Z,75.00
2019-04-20T07:30:46.535Z,73.30
2019-04-20T07:33:16.109Z,75.80
2019-04-20T07:35:49.243Z,70.00
2019-04-20T07:38:31.215Z,77.80
2019-04-20T07:40:44.088Z,80.80
2019-04-20T07:43:20.070Z,80.80
2019-04-20T07:45:51.626Z,82.20
2019-04-20T07:48:23.535Z,78.70
2019-04-20T07:50:44.652Z,76.00
2019-04-20T07:53:22.623Z,76.70
2019-04-20T07:55:58.161Z,74.80
2019-04-20T07:58:22.651Z,72.30
2019-04-20T08:01:14.958Z,74.00
2019-04-20T08:04:04.033Z,74.40
2019-04-20T08:06:28.833Z,72.80
2019-04-20T08:09:08.354Z,75.00
2019-04-20T08:11:50.432Z,72.60
2019-04-20T08:14:19.248Z,71.40
2019-04-20T08:19:23.138Z,70.70
2019-04-20T08:21:52.893Z,68.30
2019-04-20T08:24:21.308Z,65.20
2019-04-20T08:26:42.050Z,67.00
2019-04-20T08:29:33.163Z,65.90
2019-04-20T08:32:41.230Z,64.20
2019-04-20T08:35:25.934Z,62.00
2019-04-20T08:38:01.875Z,61.40
2019-04-20T08:40:25.475Z,62.90
2019-04-20T08:43:02.775Z,62.20
2019-04-20T08:45:34.903Z,59.70
2019-04-20T08:48:09.838Z,61.60
2019-04-20T08:50:36.154Z,59.70
2019-04-20T08:53:16.061Z,57.10
2019-04-20T08:55:33.445Z,57.10
2019-04-20T08:57:49.202Z,56.10
2019-04-20T09:00:25.845Z,53.80
2019-04-20T09:02:55.527Z,53.00
2019-04-20T09:05:34.709Z,55.00
2019-04-20T09:08:02.377Z,54.80
2019-04-20T09:10:43.241Z,51.40
2019-04-20T09:13:09.592Z,48.60
2019-04-20T09:15:28.083Z,53.20
2019-04-20T09:18:05.084Z,53.60
2019-04-20T09:20:45.879Z,53.20
2019-04-20T09:23:26.586Z,51.10
2019-04-20T09:26:00.082Z,51.20
2019-04-20T09:28:25.605Z,51.50
2019-04-20T09:31:02.620Z,50.60
2019-04-20T09:33:48.485Z,50.60
2019-04-20T09:36:22.582Z,51.40
2019-04-20T09:39:04.631Z,49.40
2019-04-20T09:42:00.033Z,47.60
2019-04-20T09:44:17.718Z,48.90
2019-04-20T09:46:51.567Z,47.00
2019-04-20T09:49:32.448Z,47.50
2019-04-20T09:52:01.425Z,47.10
2019-04-20T09:54:37.051Z,46.30
2019-04-20T09:57:16.089Z,46.50
2019-04-20T09:59:42.971Z,44.60
2019-04-20T10:02:06.784Z,46.00
2019-04-20T10:04:27.310Z,45.70
2019-04-20T10:07:02.233Z,46.60
2019-04-20T10:09:36.980Z,45.90
2019-04-20T10:11:59.745Z,45.50
2019-04-20T10:14:30.647Z,45.70
2019-04-20T10:17:02.007Z,46.40
2019-04-20T10:19:34.683Z,48.20
2019-04-20T10:22:02.996Z,46.90
2019-04-20T10:24:32.826Z,45.60
2019-04-20T10:27:03.037Z,46.50
2019-04-20T10:29:33.571Z,46.10
2019-04-20T10:32:07.902Z,44.50
2019-04-20T10:34:34.805Z,44.00
2019-04-20T10:37:17.719Z,42.70
2019-04-20T10:39:48.654Z,42.90
2019-04-20T10:42:18.463Z,43.50
2019-04-20T10:44:48.230Z,44.00
2019-04-20T10:47:18.964Z,42.90
2019-04-20T10:49:49.287Z,40.60
2019-04-20T10:52:19.978Z,39.70
2019-04-20T10:54:50.366Z,39.70
2019-04-20T10:57:21.520Z,39.40
2019-04-20T10:59:51.964Z,39.60
2019-04-20T11:02:21.675Z,40.70
2019-04-20T11:04:52.553Z,39.00
2019-04-20T11:07:22.845Z,40.20
2019-04-20T11:10:05.294Z,39.20
2019-04-20T11:12:24.236Z,39.40
2019-04-20T11:14:54.499Z,38.30
2019-04-20T11:17:24.575Z,38.70
2019-04-20T11:19:55.045Z,39.20
2019-04-20T11:22:24.757Z,38.00
2019-04-20T11:24:54.522Z,38.90
2019-04-20T11:27:24.102Z,37.00
2019-04-20T11:29:54.075Z,39.00
2019-04-20T11:32:24.192Z,38.70
2019-04-20T11:34:56.427Z,38.90
2019-04-20T11:37:25.206Z,38.50
2019-04-20T11:39:54.966Z,39.50
2019-04-20T11:42:25.699Z,37.00
2019-04-20T11:44:57.010Z,35.80
2019-04-20T11:47:28.068Z,37.60
2019-04-20T11:49:58.026Z,37.40
2019-04-20T11:52:28.212Z,37.60
2019-04-20T11:55:00.251Z,37.70
2019-04-20T11:57:31.185Z,36.20
2019-04-20T12:00:01.129Z,37.10
2019-04-20T12:02:46.164Z,38.50
2019-04-20T12:05:27.282Z,39.40
2019-04-20T12:07:55.426Z,39.30
2019-04-20T12:10:26.393Z,39.70
2019-04-20T12:12:57.490Z,37.00
2019-04-20T12:15:32.206Z,39.40
2019-04-20T12:18:01.870Z,39.50
2019-04-20T12:20:32.495Z,36.30
2019-04-20T12:23:02.422Z,38.40
2019-04-20T12:25:34.525Z,38.30
2019-04-20T12:28:05.189Z,38.10
2019-04-20T12:30:35.477Z,39.30
2019-04-20T12:33:05.843Z,36.80
2019-04-20T12:35:36.175Z,38.00
2019-04-20T12:38:07.203Z,37.50
2019-04-20T12:40:37.933Z,38.50
2019-04-20T12:43:08.867Z,36.20
2019-04-20T12:45:39.967Z,37.70
2019-04-20T12:48:09.732Z,34.40
2019-04-20T12:50:39.611Z,34.60
2019-04-20T12:53:10.634Z,36.50
2019-04-20T12:55:40.927Z,35.20
2019-04-20T12:58:10.634Z,36.90
2019-04-20T13:00:49.639Z,37.70
2019-04-20T13:03:19.636Z,34.00
2019-04-20T13:05:50.037Z,35.00
2019-04-20T13:08:28.523Z,36.90
2019-04-20T13:10:58.431Z,37.10
2019-04-20T13:13:46.149Z,36.20
2019-04-20T13:16:24.472Z,38.70
2019-04-20T13:18:57.233Z,37.30
2019-04-20T13:21:27.126Z,36.80
2019-04-20T13:23:56.955Z,36.50
2019-04-20T13:26:27.035Z,37.30
2019-04-20T13:28:57.108Z,37.70
2019-04-20T13:31:26.866Z,37.80
2019-04-20T13:33:57.193Z,38.00
2019-04-20T13:36:28.175Z,37.90
2019-04-20T13:38:59.422Z,38.80
2019-04-20T13:41:29.801Z,38.50
2019-04-20T13:44:01.361Z,38.00
2019-04-20T13:46:31.260Z,38.40
2019-04-20T13:49:00.979Z,38.30
2019-04-20T13:51:30.825Z,37.50
2019-04-20T13:54:01.742Z,38.50
2019-04-20T13:56:32.247Z,37.50
2019-04-20T13:59:08.317Z,38.10
2019-04-20T14:01:50.532Z,38.30
2019-04-20T14:04:26.527Z,38.50
2019-04-20T14:06:57.541Z,37.90
2019-04-20T14:09:29.614Z,38.90
2019-04-20T14:12:11.802Z,38.50
2019-04-20T14:14:34.949Z,38.20
2019-04-20T14:17:05.389Z,38.80
2019-04-20T14:19:35.148Z,39.40
2019-04-20T14:22:06.120Z,40.60
2019-04-20T14:24:37.139Z,39.10
2019-04-20T14:27:06.914Z,39.40
2019-04-20T14:29:37.028Z,39.10
2019-04-20T14:32:07.694Z,39.60
2019-04-20T14:34:38.596Z,39.70
2019-04-20T14:37:08.850Z,39.20
2019-04-20T14:39:38.790Z,39.50
2019-04-20T14:42:09.998Z,38.30
2019-04-20T14:44:40.123Z,39.60
2019-04-20T14:47:09.858Z,38.90
2019-04-20T14:49:40.856Z,38.50
2019-04-20T14:52:11.471Z,39.10
2019-04-20T14:54:41.485Z,38.30
2019-04-20T14:57:11.685Z,38.80
2019-04-20T14:59:45.928Z,38.70
2019-04-20T15:02:17.645Z,39.30
2019-04-20T15:04:47.859Z,37.80
2019-04-20T15:07:20.512Z,38.30
2019-04-20T15:09:51.033Z,39.20
2019-04-20T15:12:21.263Z,38.40
2019-04-20T15:14:52.434Z,38.50
2019-04-20T15:17:31.197Z,39.90
2019-04-20T15:20:29.729Z,39.70
2019-04-20T15:23:01.363Z,40.10
2019-04-20T15:25:31.658Z,39.50
2019-04-20T15:28:02.753Z,39.40
2019-04-20T15:30:32.519Z,39.20
2019-04-20T15:33:05.067Z,40.10
2019-04-20T15:35:34.769Z,40.60
2019-04-20T15:38:05.133Z,40.20
2019-04-20T15:40:35.258Z,40.30
2019-04-20T15:43:12.448Z,40.00
2019-04-20T15:45:37.091Z,39.80
2019-04-20T15:48:07.961Z,40.00
2019-04-20T15:50:38.163Z,40.20
2019-04-20T15:53:08.032Z,39.40
2019-04-20T15:55:40.218Z,40.00
2019-04-20T15:58:10.252Z,39.10
2019-04-20T16:00:40.536Z,40.10
2019-04-20T16:03:23.394Z,38.90
2019-04-20T16:06:03.099Z,39.20
2019-04-20T16:08:38.717Z,38.80
2019-04-20T16:11:09.225Z,39.50
2019-04-20T16:13:44.140Z,37.90
2019-04-20T16:16:11.967Z,37.20
2019-04-20T16:18:43.088Z,37.40
2019-04-20T16:21:20.955Z,38.10
2019-04-20T16:24:06.739Z,38.40
2019-04-20T16:26:44.799Z,38.60
2019-04-20T16:29:15.436Z,37.60
2019-04-20T16:31:48.110Z,38.10
2019-04-20T16:34:16.508Z,38.50
2019-04-20T16:36:46.415Z,37.80
2019-04-20T16:39:16.518Z,37.70
2019-04-20T16:41:46.508Z,37.30
2019-04-20T16:44:17.440Z,37.40
2019-04-20T16:46:48.084Z,37.10
2019-04-20T16:49:19.143Z,37.60
2019-04-20T16:51:49.333Z,36.80
2019-04-20T16:54:19.609Z,35.80
2019-04-20T16:56:49.266Z,36.70
2019-04-20T16:59:20.612Z,36.60
2019-04-20T17:01:50.609Z,35.60
2019-04-20T17:04:22.674Z,35.90
2019-04-20T17:07:20.673Z,35.50
2019-04-20T17:09:51.864Z,35.90
2019-04-20T17:12:21.741Z,36.30
2019-04-20T17:14:51.692Z,36.10
2019-04-20T17:17:21.970Z,36.40
2019-04-20T17:19:51.787Z,36.30
2019-04-20T17:22:21.581Z,37.10
2019-04-20T17:24:51.576Z,37.50
2019-04-20T17:27:46.799Z,37.60
2019-04-20T17:30:50.769Z,37.60
2019-04-20T17:33:27.604Z,38.40
2019-04-20T17:36:06.746Z,38.90
2019-04-20T17:38:36.099Z,38.90
2019-04-20T17:41:13.965Z,39.70
2019-04-20T17:43:38.899Z,39.50
2019-04-20T17:46:10.358Z,39.50
2019-04-20T17:48:42.988Z,39.70
2019-04-20T17:51:23.522Z,39.90
2019-04-20T17:54:05.324Z,40.10
2019-04-20T17:56:38.439Z,40.10
2019-04-20T17:59:08.244Z,40.40
2019-04-20T18:02:24.958Z,40.80
2019-04-20T18:05:37.022Z,41.10
2019-04-20T18:08:04.117Z,41.40
2019-04-20T18:10:31.225Z,41.90
2019-04-20T18:12:50.196Z,42.10
2019-04-20T18:15:36.934Z,42.40
2019-04-20T18:18:24.113Z,42.80
2019-04-20T18:20:56.995Z,43.20
2019-04-20T18:23:33.507Z,43.40
2019-04-20T18:26:17.253Z,43.40
2019-04-20T18:28:54.825Z,43.60
2019-04-20T18:31:19.661Z,43.80
2019-04-20T18:33:50.613Z,44.70
2019-04-20T18:36:27.272Z,43.90
2019-04-20T18:38:57.464Z,43.70
2019-04-20T18:41:31.874Z,44.30
2019-04-20T18:43:58.573Z,44.30
2019-04-20T18:46:49.426Z,44.70
2019-04-20T18:49:14.818Z,44.70
2019-04-20T18:51:28.199Z,45.20
2019-04-20T18:54:06.479Z,45.10
2019-04-20T18:56:35.236Z,45.40
2019-04-20T18:59:01.125Z,45.50
2019-04-20T19:01:34.860Z,45.70
2019-04-20T19:04:03.746Z,45.60
2019-04-20T19:06:34.076Z,45.90
2019-04-20T19:09:10.488Z,46.00
2019-04-20T19:11:43.840Z,46.20
2019-04-20T19:14:33.624Z,46.40
2019-04-20T19:17:11.094Z,46.60
2019-04-20T19:19:44.569Z,46.80
2019-04-20T19:22:10.139Z,47.10
2019-04-20T19:24:41.583Z,47.40
2019-04-20T19:27:15.616Z,47.50
2019-04-20T19:29:54.629Z,47.40
2019-04-20T19:32:29.997Z,47.90
2019-04-20T19:34:57.549Z,48.10
2019-04-20T19:37:26.050Z,48.10
2019-04-20T19:40:02.890Z,48.10
2019-04-20T19:42:34.898Z,48.20
2019-04-20T19:45:16.841Z,48.30
2019-04-20T19:47:44.125Z,48.40
2019-04-20T19:50:25.154Z,48.40
2019-04-20T19:52:53.099Z,48.80
2019-04-20T19:55:14.431Z,48.80
2019-04-20T19:57:45.544Z,49.00
2019-04-20T19:59:59.965Z,49.10
2019-04-20T20:02:29.997Z,49.00
2019-04-20T20:05:06.299Z,49.20
2019-04-20T20:07:37.769Z,49.40
2019-04-20T20:10:05.814Z,49.50
2019-04-20T20:12:33.701Z,49.50
2019-04-20T20:15:07.417Z,49.30
2019-04-20T20:17:54.437Z,49.60
2019-04-20T20:20:33.706Z,49.40
2019-04-20T20:22:44.710Z,49.80
2019-04-20T20:25:09.489Z,50.00
2019-04-20T20:27:47.579Z,50.10
2019-04-20T20:30:20.508Z,50.30
2019-04-20T20:32:56.419Z,50.30
2019-04-20T20:35:23.050Z,50.20
2019-04-20T20:37:50.154Z,50.40
2019-04-20T20:40:25.358Z,50.30
2019-04-20T20:43:02.047Z,50.30
2019-04-20T20:45:29.620Z,50.50
2019-04-20T20:48:09.139Z,50.60
2019-04-20T20:50:42.424Z,50.90
2019-04-20T20:53:06.338Z,51.00
2019-04-20T20:55:32.124Z,52.30
2019-04-20T20:58:05.196Z,51.70
2019-04-20T21:00:41.871Z,51.90
2019-04-20T21:03:03.866Z,51.90
2019-04-20T21:05:31.475Z,52.10
2019-04-20T21:08:01.682Z,53.00
2019-04-20T21:10:37.560Z,52.70
2019-04-20T21:13:06.564Z,53.20
2019-04-20T21:15:35.097Z,55.20
2019-04-20T21:18:43.498Z,53.80
2019-04-20T21:21:13.296Z,54.20
2019-04-20T21:23:37.014Z,56.30
2019-04-20T21:26:12.882Z,55.50
2019-04-20T21:28:41.963Z,57.80
2019-04-20T21:31:21.443Z,57.00
2019-04-20T21:33:47.005Z,57.60
2019-04-20T21:36:29.977Z,57.50
2019-04-20T21:38:59.507Z,57.60
2019-04-20T21:41:30.809Z,58.20
2019-04-20T21:44:01.367Z,58.40
2019-04-20T21:46:40.844Z,58.60
2019-04-20T21:49:18.226Z,59.30
2019-04-20T21:51:44.356Z,60.40
2019-04-20T21:54:06.798Z,61.90
2019-04-20T21:56:38.312Z,63.30
2019-04-20T21:59:16.443Z,65.50
2019-04-20T22:01:46.300Z,68.30
2019-04-20T22:04:12.179Z,69.10
2019-04-20T22:06:42.411Z,67.00
2019-04-20T22:09:14.730Z,67.60
2019-04-20T22:11:44.394Z,66.70
2019-04-20T22:14:18.681Z,66.80
2019-04-20T22:16:49.538Z,66.90
2019-04-20T22:19:33.469Z,71.20
2019-04-20T22:22:01.949Z,70.10
2019-04-20T22:24:37.278Z,71.80
2019-04-20T22:27:04.636Z,74.30
2019-04-20T22:29:22.005Z,74.00
2019-04-20T22:31:57.384Z,74.80
2019-04-20T22:34:26.067Z,76.10
2019-04-20T22:36:58.054Z,77.50
2019-04-20T22:39:39.355Z,82.50
2019-04-20T22:42:09.010Z,83.00
2019-04-20T22:44:36.416Z,82.90
2019-04-20T22:47:15.657Z,85.50
2019-04-20T22:49:52.909Z,85.90
2019-04-20T22:52:27.817Z,86.80
2019-04-20T22:55:01.361Z,87.00
2019-04-20T22:57:31.596Z,88.30
2019-04-20T22:59:56.889Z,87.60
2019-04-20T23:02:22.925Z,86.90
2019-04-20T23:04:52.956Z,89.00
2019-04-20T23:07:26.459Z,89.90
2019-04-20T23:09:58.447Z,89.10
2019-04-20T23:12:29.241Z,90.60
2019-04-20T23:14:58.877Z,90.40
2019-04-20T23:17:35.857Z,90.70
2019-04-20T23:20:03.131Z,88.60
2019-04-20T23:22:36.846Z,87.80
2019-04-20T23:25:03.142Z,87.70
2019-04-20T23:27:39.084Z,86.40
2019-04-20T23:30:12.584Z,86.60
2019-04-20T23:32:39.967Z,86.60
2019-04-20T23:35:15.995Z,86.70
2019-04-20T23:37:42.282Z,86.90
2019-04-20T23:40:14.609Z,87.10
2019-04-20T23:42:51.717Z,86.70
2019-04-20T23:45:52.659Z,86.90
2019-04-20T23:48:43.429Z,87.20
2019-04-20T23:51:36.370Z,87.30
2019-04-20T23:53:56.670Z,87.60
2019-04-20T23:56:18.685Z,87.80
2019-04-20T23:58:52.921Z,89.50
